Time,TemperatureF,DewpointF,PressureIn,WindDirection,WindDirectionDegrees,WindSpeedMPH,WindSpeedGustMPH,Humidity,HourlyPrecipIn,Conditions,Clouds,dailyrainin,SoftwareType,DateUTC
2013-10-13 00:01:00,40.1,18.9,26.07,North,0,5.8,5.8,42,0.00,,---,0.00,VWS V14.01,2013-10-13 07:01:00,
2013-10-13 00:06:00,40.1,18.9,26.07,North,0,5.8,5.8,42,0.00,,---,0.00,VWS V14.01,2013-10-13 07:06:00,
2013-10-13 00:11:00,40.1,18.9,26.07,North,0,4.0,4.9,42,0.00,,---,0.00,VWS V14.01,2013-10-13 07:11:00,
2013-10-13 00:16:00,39.9,18.1,26.07,North,0,4.9,5.8,41,0.00,,---,0.00,VWS V14.01,2013-10-13 07:16:00,
2013-10-13 00:21:00,39.7,18.5,26.07,North,0,3.6,4.0,42,0.00,,---,0.00,VWS V14.01,2013-10-13 07:21:00,
2013-10-13 00:26:00,39.6,18.4,26.07,North,0,4.9,4.9,42,0.00,,---,0.00,VWS V14.01,2013-10-13 07:26:00,
2013-10-13 00:31:00,39.4,18.2,26.07,NNW,338,5.4,5.4,42,0.00,,---,0.00,VWS V14.01,2013-10-13 07:31:00,
2013-10-13 00:36:00,39.4,18.2,26.07,North,0,4.0,5.4,42,0.00,,---,0.00,VWS V14.01,2013-10-13 07:36:00,
2013-10-13 00:41:00,39.2,18.0,26.07,North,0,4.9,4.9,42,0.00,,---,0.00,VWS V14.01,2013-10-13 07:41:00,
2013-10-13 00:46:00,39.0,17.9,26.04,North,0,4.9,4.9,42,0.00,,---,0.00,VWS V14.01,2013-10-13 07:46:00,
2013-10-13 00:51:00,38.7,17.6,26.04,North,0,4.9,5.8,42,0.00,,---,0.00,VWS V14.01,2013-10-13 07:51:00,
2013-10-13 00:56:00,38.7,18.1,26.04,North,0,4.0,4.0,43,0.00,,---,0.00,VWS V14.01,2013-10-13 07:56:00,
2013-10-13 01:01:00,38.7,18.1,26.04,North,0,4.0,4.9,43,0.00,,---,0.00,VWS V14.01,2013-10-13 08:01:00,
2013-10-13 01:06:00,38.5,17.9,26.04,North,0,3.6,4.5,43,0.00,,---,0.00,VWS V14.01,2013-10-13 08:06:00,
2013-10-13 01:11:00,38.5,17.9,26.04,North,0,4.9,4.9,43,0.00,,---,0.00,VWS V14.01,2013-10-13 08:11:00,
2013-10-13 01:16:00,37.9,17.5,26.07,North,0,4.0,4.0,43,0.00,,---,0.00,VWS V14.01,2013-10-13 08:16:00,
2013-10-13 01:21:00,37.8,17.3,26.07,North,0,4.0,5.4,43,0.00,,---,0.00,VWS V14.01,2013-10-13 08:21:00,
2013-10-13 01:26:00,37.6,17.1,26.07,North,0,4.0,4.0,43,0.00,,---,0.00,VWS V14.01,2013-10-13 08:26:00,
2013-10-13 01:31:00,37.4,17.5,26.07,North,0,3.6,3.6,44,0.00,,---,0.00,VWS V14.01,2013-10-13 08:31:00,
2013-10-13 01:36:00,37.4,17.5,26.07,North,0,3.6,3.6,44,0.00,,---,0.00,VWS V14.01,2013-10-13 08:36:00,
2013-10-13 01:41:00,37.2,18.4,26.07,North,0,2.7,2.7,46,0.00,,---,0.00,VWS V14.01,2013-10-13 08:41:00,
2013-10-13 01:46:00,37.0,18.7,26.07,North,0,4.0,4.0,47,0.00,,---,0.00,VWS V14.01,2013-10-13 08:46:00,
2013-10-13 01:51:00,36.9,18.5,26.07,North,0,2.7,2.7,47,0.00,,---,0.00,VWS V14.01,2013-10-13 08:51:00,
2013-10-13 01:56:00,36.7,19.3,26.07,North,0,3.1,3.1,49,0.00,,---,0.00,VWS V14.01,2013-10-13 08:56:00,
2013-10-13 02:01:00,36.7,19.3,26.07,North,0,5.4,5.4,49,0.00,,---,0.00,VWS V14.01,2013-10-13 09:01:00,
2013-10-13 02:06:00,36.7,19.3,26.07,North,0,3.6,3.6,49,0.00,,---,0.00,VWS V14.01,2013-10-13 09:06:00,
2013-10-13 02:11:00,36.7,19.3,26.07,North,0,3.6,3.6,49,0.00,,---,0.00,VWS V14.01,2013-10-13 09:11:00,
2013-10-13 02:16:00,36.7,19.3,26.04,North,0,3.1,3.1,49,0.00,,---,0.00,VWS V14.01,2013-10-13 09:16:00,
2013-10-13 02:21:00,36.7,19.8,26.04,North,0,4.9,4.9,50,0.00,,---,0.00,VWS V14.01,2013-10-13 09:21:00,
2013-10-13 02:26:00,36.5,19.2,26.04,North,0,2.7,3.6,49,0.00,,---,0.00,VWS V14.01,2013-10-13 09:26:00,
2013-10-13 02:31:00,36.5,19.2,26.07,North,0,4.9,4.9,49,0.00,,---,0.00,VWS V14.01,2013-10-13 09:31:00,
2013-10-13 02:36:00,36.5,19.6,26.07,North,0,5.4,5.4,50,0.00,,---,0.00,VWS V14.01,2013-10-13 09:36:00,
2013-10-13 02:41:00,36.5,19.6,26.07,North,0,3.6,4.0,50,0.00,,---,0.00,VWS V14.01,2013-10-13 09:41:00,
2013-10-13 02:46:00,36.5,19.6,26.04,North,0,4.0,4.5,50,0.00,,---,0.00,VWS V14.01,2013-10-13 09:46:00,
2013-10-13 02:51:00,36.3,19.9,26.04,North,0,4.9,4.9,51,0.00,,---,0.00,VWS V14.01,2013-10-13 09:51:00,
2013-10-13 02:56:00,36.3,19.9,26.04,North,0,2.7,4.9,51,0.00,,---,0.00,VWS V14.01,2013-10-13 09:56:00,
2013-10-13 03:01:00,36.1,19.8,26.07,North,0,2.7,3.6,51,0.00,,---,0.00,VWS V14.01,2013-10-13 10:01:00,
2013-10-13 03:06:00,36.1,19.8,26.07,North,0,3.1,5.4,51,0.00,,---,0.00,VWS V14.01,2013-10-13 10:06:00,
2013-10-13 03:11:00,36.1,19.8,26.07,North,0,2.7,4.0,51,0.00,,---,0.00,VWS V14.01,2013-10-13 10:11:00,
2013-10-13 03:16:00,36.0,19.6,26.04,North,0,3.1,4.9,51,0.00,,---,0.00,VWS V14.01,2013-10-13 10:16:00,
2013-10-13 03:21:00,36.1,19.8,26.04,North,0,3.6,4.5,51,0.00,,---,0.00,VWS V14.01,2013-10-13 10:21:00,
2013-10-13 03:26:00,36.0,19.1,26.04,North,0,3.1,4.0,50,0.00,,---,0.00,VWS V14.01,2013-10-13 10:26:00,
2013-10-13 03:31:00,36.1,19.3,26.04,North,0,3.6,3.6,50,0.00,,---,0.00,VWS V14.01,2013-10-13 10:31:00,
2013-10-13 03:36:00,36.1,19.3,26.04,North,0,2.7,3.1,50,0.00,,---,0.00,VWS V14.01,2013-10-13 10:36:00,
2013-10-13 03:41:00,36.0,19.1,26.04,North,0,2.7,2.7,50,0.00,,---,0.00,VWS V14.01,2013-10-13 10:41:00,
2013-10-13 03:46:00,35.8,19.4,26.07,North,0,3.1,3.6,51,0.00,,---,0.00,VWS V14.01,2013-10-13 10:46:00,
2013-10-13 03:51:00,35.8,19.4,26.07,North,0,2.2,2.2,51,0.00,,---,0.00,VWS V14.01,2013-10-13 10:51:00,
2013-10-13 03:56:00,35.8,19.4,26.07,North,0,0.0,3.1,51,0.00,,---,0.00,VWS V14.01,2013-10-13 10:56:00,
2013-10-13 04:01:00,35.6,19.3,26.04,North,0,2.2,2.7,51,0.00,,---,0.00,VWS V14.01,2013-10-13 11:01:00,
2013-10-13 04:06:00,35.4,19.1,26.04,North,0,2.7,2.7,51,0.00,,---,0.00,VWS V14.01,2013-10-13 11:06:00,
2013-10-13 04:11:00,35.1,18.3,26.04,North,0,2.2,2.7,50,0.00,,---,0.00,VWS V14.01,2013-10-13 11:11:00,
2013-10-13 04:16:00,34.9,18.1,26.04,North,0,2.2,2.7,50,0.00,,---,0.00,VWS V14.01,2013-10-13 11:16:00,
2013-10-13 04:21:00,34.7,18.0,26.04,North,0,2.2,2.2,50,0.00,,---,0.00,VWS V14.01,2013-10-13 11:21:00,
2013-10-13 04:26:00,34.3,17.6,26.04,North,0,2.2,2.2,50,0.00,,---,0.00,VWS V14.01,2013-10-13 11:26:00,
2013-10-13 04:31:00,34.3,17.6,26.04,North,0,0.0,0.0,50,0.00,,---,0.00,VWS V14.01,2013-10-13 11:31:00,
2013-10-13 04:36:00,34.2,17.5,26.04,North,0,2.2,2.2,50,0.00,,---,0.00,VWS V14.01,2013-10-13 11:36:00,
2013-10-13 04:41:00,33.8,17.1,26.04,North,0,2.2,2.2,50,0.00,,---,0.00,VWS V14.01,2013-10-13 11:41:00,
2013-10-13 04:46:00,33.6,17.4,26.04,North,0,0.0,0.0,51,0.00,,---,0.00,VWS V14.01,2013-10-13 11:46:00,
2013-10-13 04:50:00,33.4,17.7,26.04,North,0,3.1,3.1,52,0.00,,---,0.00,VWS V14.01,2013-10-13 11:50:00,
2013-10-13 04:55:00,33.3,17.5,26.04,NE,45,2.7,4.0,52,0.00,,---,0.00,VWS V14.01,2013-10-13 11:55:00,
2013-10-13 05:00:00,33.4,18.2,26.07,NE,45,2.2,3.6,53,0.00,,---,0.00,VWS V14.01,2013-10-13 12:00:00,
2013-10-13 05:05:00,33.3,18.9,26.07,NE,45,4.5,4.5,55,0.00,,---,0.00,VWS V14.01,2013-10-13 12:05:00,
2013-10-13 05:10:00,32.9,18.1,26.07,NE,45,3.6,4.0,54,0.00,,---,0.00,VWS V14.01,2013-10-13 12:10:00,
2013-10-13 05:15:00,32.7,17.9,26.04,NE,45,4.0,4.0,54,0.00,,---,0.00,VWS V14.01,2013-10-13 12:15:00,
2013-10-13 05:20:00,33.1,18.7,26.04,NE,45,4.0,4.5,55,0.00,,---,0.00,VWS V14.01,2013-10-13 12:20:00,
2013-10-13 05:25:00,32.7,17.9,26.04,NE,45,4.0,4.0,54,0.00,,---,0.00,VWS V14.01,2013-10-13 12:25:00,
2013-10-13 05:30:00,32.7,18.4,26.07,NE,45,4.0,4.0,55,0.00,,---,0.00,VWS V14.01,2013-10-13 12:30:00,
2013-10-13 05:35:00,32.7,18.8,26.07,NE,45,4.0,4.0,56,0.00,,---,0.00,VWS V14.01,2013-10-13 12:35:00,
2013-10-13 05:40:00,32.7,18.8,26.07,NE,45,4.0,4.0,56,0.00,,---,0.00,VWS V14.01,2013-10-13 12:40:00,
2013-10-13 05:45:00,32.9,19.8,26.04,NE,45,3.6,3.6,58,0.00,,---,0.00,VWS V14.01,2013-10-13 12:45:00,
2013-10-13 05:50:00,33.1,20.7,26.04,NE,45,3.1,3.1,60,0.00,,---,0.00,VWS V14.01,2013-10-13 12:50:00,
2013-10-13 05:55:00,33.3,21.3,26.04,NE,45,3.1,3.6,61,0.00,,---,0.00,VWS V14.01,2013-10-13 12:55:00,
2013-10-13 06:00:00,33.3,21.3,26.07,NE,45,2.7,3.6,61,0.00,,---,0.00,VWS V14.01,2013-10-13 13:00:00,
2013-10-13 06:05:00,32.9,19.4,26.07,NE,45,3.6,4.0,57,0.00,,---,0.00,VWS V14.01,2013-10-13 13:05:00,
2013-10-13 06:10:00,32.7,19.2,26.07,NE,45,2.7,4.0,57,0.00,,---,0.00,VWS V14.01,2013-10-13 13:10:00,
2013-10-13 06:15:00,32.5,19.4,26.07,NE,45,3.6,3.6,58,0.00,,---,0.00,VWS V14.01,2013-10-13 13:15:00,
2013-10-13 06:20:00,32.5,19.4,26.07,NE,45,3.6,3.6,58,0.00,,---,0.00,VWS V14.01,2013-10-13 13:20:00,
2013-10-13 06:25:00,32.7,19.6,26.07,NE,45,3.1,3.1,58,0.00,,---,0.00,VWS V14.01,2013-10-13 13:25:00,
2013-10-13 06:30:00,32.7,19.6,26.07,NE,45,2.7,3.1,58,0.00,,---,0.00,VWS V14.01,2013-10-13 13:30:00,
2013-10-13 06:35:00,32.5,19.4,26.07,NE,45,2.2,3.6,58,0.00,,---,0.00,VWS V14.01,2013-10-13 13:35:00,
2013-10-13 06:40:00,32.5,19.0,26.07,NE,45,3.6,3.6,57,0.00,,---,0.00,VWS V14.01,2013-10-13 13:40:00,
2013-10-13 06:45:00,32.4,18.4,26.07,NE,45,2.7,2.7,56,0.00,,---,0.00,VWS V14.01,2013-10-13 13:45:00,
2013-10-13 06:50:00,32.2,18.3,26.07,NE,45,2.7,3.1,56,0.00,,---,0.00,VWS V14.01,2013-10-13 13:50:00,
2013-10-13 06:55:00,32.0,18.1,26.07,NE,45,2.7,3.1,56,0.00,,---,0.00,VWS V14.01,2013-10-13 13:55:00,
2013-10-13 07:00:00,31.8,18.3,26.07,NE,45,3.1,3.1,57,0.00,,---,0.00,VWS V14.01,2013-10-13 14:00:00,
2013-10-13 07:05:00,31.5,17.6,26.07,NE,45,2.7,3.1,56,0.00,,---,0.00,VWS V14.01,2013-10-13 14:05:00,
2013-10-13 07:10:00,31.6,18.2,26.07,NE,45,2.7,3.1,57,0.00,,---,0.00,VWS V14.01,2013-10-13 14:10:00,
2013-10-13 07:15:00,31.8,18.3,26.07,NE,45,2.7,3.1,57,0.00,,---,0.00,VWS V14.01,2013-10-13 14:15:00,
2013-10-13 07:20:00,31.8,17.9,26.07,NE,45,4.0,4.0,56,0.00,,---,0.00,VWS V14.01,2013-10-13 14:20:00,
2013-10-13 07:25:00,31.3,17.0,26.07,NE,45,2.2,2.7,55,0.00,,---,0.00,VWS V14.01,2013-10-13 14:25:00,
2013-10-13 07:30:00,31.3,17.4,26.10,NE,45,0.0,0.0,56,0.00,,---,0.00,VWS V14.01,2013-10-13 14:30:00,
2013-10-13 07:35:00,30.9,16.7,26.10,NE,45,3.6,3.6,55,0.00,,---,0.00,VWS V14.01,2013-10-13 14:35:00,
2013-10-13 07:40:00,30.6,16.3,26.10,NE,45,3.1,3.1,55,0.00,,---,0.00,VWS V14.01,2013-10-13 14:40:00,
2013-10-13 07:45:00,30.6,16.3,26.10,NE,45,3.1,3.1,55,0.00,,---,0.00,VWS V14.01,2013-10-13 14:45:00,
2013-10-13 07:50:00,30.9,17.5,26.10,NE,45,2.7,3.1,57,0.00,,---,0.00,VWS V14.01,2013-10-13 14:50:00,
2013-10-13 07:55:00,31.3,18.6,26.10,NE,45,2.7,3.1,59,0.00,,---,0.00,VWS V14.01,2013-10-13 14:55:00,
2013-10-13 08:00:00,31.5,18.4,26.10,NE,45,3.1,3.1,58,0.00,,---,0.00,VWS V14.01,2013-10-13 15:00:00,
2013-10-13 08:05:00,32.0,18.5,26.10,NE,45,3.1,3.1,57,0.00,,---,0.00,VWS V14.01,2013-10-13 15:05:00,
2013-10-13 08:10:00,32.5,19.4,26.10,NE,45,2.7,3.6,58,0.00,,---,0.00,VWS V14.01,2013-10-13 15:10:00,
2013-10-13 08:15:00,33.1,19.5,26.13,NE,45,2.7,2.7,57,0.00,,---,0.00,VWS V14.01,2013-10-13 15:15:00,
2013-10-13 08:20:00,33.8,20.2,26.13,NE,45,2.2,2.7,57,0.00,,---,0.00,VWS V14.01,2013-10-13 15:20:00,
2013-10-13 08:25:00,34.9,21.2,26.13,NE,45,2.7,3.1,57,0.00,,---,0.00,VWS V14.01,2013-10-13 15:25:00,
2013-10-13 08:30:00,35.8,21.6,26.13,NE,45,2.2,3.1,56,0.00,,---,0.00,VWS V14.01,2013-10-13 15:30:00,
2013-10-13 08:35:00,37.0,23.2,26.13,NE,45,2.7,2.7,57,0.00,,---,0.00,VWS V14.01,2013-10-13 15:35:00,
2013-10-13 08:40:00,37.9,23.2,26.13,NE,45,0.0,0.0,55,0.00,,---,0.00,VWS V14.01,2013-10-13 15:40:00,
2013-10-13 08:45:00,38.7,23.0,26.13,NE,45,0.0,0.0,53,0.00,,---,0.00,VWS V14.01,2013-10-13 15:45:00,
2013-10-13 08:50:00,39.0,22.9,26.13,NE,45,2.7,2.7,52,0.00,,---,0.00,VWS V14.01,2013-10-13 15:50:00,
2013-10-13 08:55:00,40.1,23.0,26.13,NE,45,0.0,2.7,50,0.00,,---,0.00,VWS V14.01,2013-10-13 15:55:00,
2013-10-13 09:00:00,40.5,22.8,26.13,NE,45,2.7,2.7,49,0.00,,---,0.00,VWS V14.01,2013-10-13 16:00:00,
2013-10-13 09:05:00,41.2,23.0,26.13,NE,45,0.0,2.7,48,0.00,,---,0.00,VWS V14.01,2013-10-13 16:05:00,
2013-10-13 09:10:00,41.9,21.0,26.13,North,0,4.0,5.8,43,0.00,,---,0.00,VWS V14.01,2013-10-13 16:10:00,
2013-10-13 09:15:00,42.3,21.9,26.16,North,0,3.6,3.6,44,0.00,,---,0.00,VWS V14.01,2013-10-13 16:15:00,
2013-10-13 09:20:00,42.4,19.8,26.16,NNE,22,4.0,4.0,40,0.00,,---,0.00,VWS V14.01,2013-10-13 16:20:00,
2013-10-13 09:25:00,42.8,20.2,26.16,North,0,3.1,5.4,40,0.00,,---,0.00,VWS V14.01,2013-10-13 16:25:00,
2013-10-13 09:30:00,43.2,19.9,26.16,North,0,4.0,4.9,39,0.00,,---,0.00,VWS V14.01,2013-10-13 16:30:00,
2013-10-13 09:35:00,43.5,20.2,26.16,North,0,4.0,4.9,39,0.00,,---,0.00,VWS V14.01,2013-10-13 16:35:00,
2013-10-13 09:40:00,43.7,19.8,26.16,NE,45,4.9,4.9,38,0.00,,---,0.00,VWS V14.01,2013-10-13 16:40:00,
2013-10-13 09:45:00,44.1,20.7,26.16,NE,45,3.6,5.8,39,0.00,,---,0.00,VWS V14.01,2013-10-13 16:45:00,
2013-10-13 09:50:00,44.2,20.9,26.16,North,0,2.2,3.6,39,0.00,,---,0.00,VWS V14.01,2013-10-13 16:50:00,
2013-10-13 09:55:00,44.1,20.1,26.16,North,0,4.0,4.0,38,0.00,,---,0.00,VWS V14.01,2013-10-13 16:55:00,
2013-10-13 10:00:00,44.2,20.9,26.16,NE,45,3.6,4.0,39,0.00,,---,0.00,VWS V14.01,2013-10-13 17:00:00,
2013-10-13 10:05:00,44.2,20.3,26.16,North,0,2.7,2.7,38,0.00,,---,0.00,VWS V14.01,2013-10-13 17:05:00,
2013-10-13 10:10:00,44.2,20.3,26.16,North,0,3.1,3.6,38,0.00,,---,0.00,VWS V14.01,2013-10-13 17:10:00,
2013-10-13 10:15:00,44.2,20.3,26.16,North,0,3.6,4.5,38,0.00,,---,0.00,VWS V14.01,2013-10-13 17:15:00,
2013-10-13 10:20:00,44.6,18.7,26.16,NNW,338,2.7,3.1,35,0.00,,---,0.00,VWS V14.01,2013-10-13 17:20:00,
2013-10-13 10:25:00,44.4,20.4,26.16,North,0,2.7,3.1,38,0.00,,---,0.00,VWS V14.01,2013-10-13 17:25:00,
2013-10-13 10:30:00,44.2,20.3,26.16,North,0,3.1,3.1,38,0.00,,---,0.00,VWS V14.01,2013-10-13 17:30:00,
2013-10-13 10:35:00,44.2,20.3,26.16,North,0,3.1,3.1,38,0.00,,---,0.00,VWS V14.01,2013-10-13 17:35:00,
2013-10-13 10:40:00,44.6,20.6,26.16,NNW,338,0.0,3.6,38,0.00,,---,0.00,VWS V14.01,2013-10-13 17:40:00,
2013-10-13 10:45:00,44.8,20.7,26.16,North,0,3.6,4.0,38,0.00,,---,0.00,VWS V14.01,2013-10-13 17:45:00,
2013-10-13 10:50:00,45.0,20.9,26.16,East,90,3.1,4.0,38,0.00,,---,0.00,VWS V14.01,2013-10-13 17:50:00,
2013-10-13 10:55:00,45.0,20.3,26.16,ENE,68,4.9,5.4,37,0.00,,---,0.00,VWS V14.01,2013-10-13 17:55:00,
2013-10-13 11:00:00,45.0,20.3,26.16,North,0,3.6,3.6,37,0.00,,---,0.00,VWS V14.01,2013-10-13 18:00:00,
2013-10-13 11:05:00,44.8,19.5,26.16,North,0,4.5,4.5,36,0.00,,---,0.00,VWS V14.01,2013-10-13 18:05:00,
2013-10-13 11:11:00,45.5,18.8,26.16,North,0,5.8,5.8,34,0.00,,---,0.00,VWS V14.01,2013-10-13 18:11:00,
2013-10-13 11:16:00,46.0,18.6,26.16,North,0,3.6,3.6,33,0.00,,---,0.00,VWS V14.01,2013-10-13 18:16:00,
2013-10-13 11:20:00,45.9,18.4,26.16,NE,45,5.4,5.4,33,0.00,,---,0.00,VWS V14.01,2013-10-13 18:20:00,
2013-10-13 11:25:00,46.0,19.3,26.16,NE,45,5.4,5.4,34,0.00,,---,0.00,VWS V14.01,2013-10-13 18:25:00,
2013-10-13 11:30:00,45.7,18.2,26.16,SE,135,5.8,5.8,33,0.00,,---,0.00,VWS V14.01,2013-10-13 18:30:00,
2013-10-13 11:35:00,45.9,17.7,26.16,NE,45,2.7,5.4,32,0.00,,---,0.00,VWS V14.01,2013-10-13 18:35:00,
2013-10-13 11:40:00,45.5,18.1,26.16,South,180,0.0,2.7,33,0.00,,---,0.00,VWS V14.01,2013-10-13 18:40:00,
2013-10-13 11:45:00,45.3,18.6,26.16,ESE,112,4.0,4.5,34,0.00,,---,0.00,VWS V14.01,2013-10-13 18:45:00,
2013-10-13 11:50:00,45.5,19.5,26.16,SW,225,2.7,3.1,35,0.00,,---,0.00,VWS V14.01,2013-10-13 18:50:00,
2013-10-13 11:55:00,46.4,17.4,26.16,SE,135,3.1,4.0,31,0.00,,---,0.00,VWS V14.01,2013-10-13 18:55:00,
2013-10-13 12:00:00,46.6,18.3,26.16,North,0,2.7,2.7,32,0.00,,---,0.00,VWS V14.01,2013-10-13 19:00:00,
2013-10-13 12:05:00,47.3,18.2,26.16,NW,315,3.1,4.5,31,0.00,,---,0.00,VWS V14.01,2013-10-13 19:05:00,
2013-10-13 12:10:00,47.5,18.4,26.16,NW,315,2.7,2.7,31,0.00,,---,0.00,VWS V14.01,2013-10-13 19:10:00,
2013-10-13 12:15:00,47.7,18.5,26.16,NE,45,2.7,3.6,31,0.00,,---,0.00,VWS V14.01,2013-10-13 19:15:00,
2013-10-13 12:20:00,47.3,17.5,26.16,North,0,4.0,4.9,30,0.00,,---,0.00,VWS V14.01,2013-10-13 19:20:00,
2013-10-13 12:25:00,47.3,17.5,26.16,ESE,112,0.0,0.0,30,0.00,,---,0.00,VWS V14.01,2013-10-13 19:25:00,
2013-10-13 12:30:00,46.6,18.3,26.16,NE,45,2.7,3.1,32,0.00,,---,0.00,VWS V14.01,2013-10-13 19:30:00,
2013-10-13 12:35:00,46.4,19.6,26.16,North,0,4.9,4.9,34,0.00,,---,0.00,VWS V14.01,2013-10-13 19:35:00,
2013-10-13 12:40:00,46.2,18.7,26.16,North,0,2.7,2.7,33,0.00,,---,0.00,VWS V14.01,2013-10-13 19:40:00,
2013-10-13 12:45:00,46.4,18.9,26.16,NW,315,2.7,3.1,33,0.00,,---,0.00,VWS V14.01,2013-10-13 19:45:00,
2013-10-13 12:50:00,46.2,18.7,26.16,NW,315,0.0,0.0,33,0.00,,---,0.00,VWS V14.01,2013-10-13 19:50:00,
2013-10-13 12:55:00,46.0,19.3,26.16,NW,315,0.0,0.0,34,0.00,,---,0.00,VWS V14.01,2013-10-13 19:55:00,
2013-10-13 13:00:00,46.0,19.3,26.16,NE,45,2.7,3.1,34,0.00,,---,0.00,VWS V14.01,2013-10-13 20:00:00,
2013-10-13 13:05:00,46.0,18.6,26.16,NE,45,3.6,3.6,33,0.00,,---,0.00,VWS V14.01,2013-10-13 20:05:00,
2013-10-13 13:10:00,46.8,18.5,26.16,ESE,112,3.1,3.6,32,0.00,,---,0.00,VWS V14.01,2013-10-13 20:10:00,
2013-10-13 13:15:00,46.9,17.9,26.13,NW,315,4.5,4.5,31,0.00,,---,0.00,VWS V14.01,2013-10-13 20:15:00,
2013-10-13 13:20:00,48.4,17.6,26.13,NW,315,5.4,6.7,29,0.00,,---,0.00,VWS V14.01,2013-10-13 20:20:00,
2013-10-13 13:25:00,48.2,18.2,26.13,NNW,338,7.6,7.6,30,0.00,,---,0.00,VWS V14.01,2013-10-13 20:25:00,
2013-10-13 13:30:00,48.2,16.6,26.13,NE,45,0.0,2.7,28,0.00,,---,0.00,VWS V14.01,2013-10-13 20:30:00,
2013-10-13 13:35:00,49.5,18.5,26.13,WSW,248,8.3,8.3,29,0.00,,---,0.00,VWS V14.01,2013-10-13 20:35:00,
2013-10-13 13:40:00,49.5,18.5,26.13,WSW,248,8.3,9.6,29,0.00,,---,0.00,VWS V14.01,2013-10-13 20:40:00,
2013-10-13 13:45:00,50.2,19.2,26.13,SW,225,5.4,6.3,29,0.00,,---,0.00,VWS V14.01,2013-10-13 20:45:00,
2013-10-13 13:50:00,50.0,18.2,26.13,SW,225,5.4,5.4,28,0.00,,---,0.00,VWS V14.01,2013-10-13 20:50:00,
2013-10-13 13:55:00,50.0,18.2,26.13,SW,225,2.2,3.1,28,0.00,,---,0.00,VWS V14.01,2013-10-13 20:55:00,
2013-10-13 14:00:00,49.6,17.9,26.13,SSW,202,5.4,5.4,28,0.00,,---,0.00,VWS V14.01,2013-10-13 21:00:00,
2013-10-13 14:05:00,50.5,18.7,26.13,West,270,5.4,7.6,28,0.00,,---,0.00,VWS V14.01,2013-10-13 21:05:00,
2013-10-13 14:10:00,50.2,17.5,26.13,West,270,5.8,5.8,27,0.00,,---,0.00,VWS V14.01,2013-10-13 21:10:00,
2013-10-13 14:15:00,49.5,17.7,26.13,SW,225,6.3,6.3,28,0.00,,---,0.00,VWS V14.01,2013-10-13 21:15:00,
2013-10-13 14:20:00,50.2,19.2,26.13,SW,225,6.3,7.6,29,0.00,,---,0.00,VWS V14.01,2013-10-13 21:20:00,
2013-10-13 14:25:00,49.5,17.7,26.13,SW,225,5.4,5.4,28,0.00,,---,0.00,VWS V14.01,2013-10-13 21:25:00,
2013-10-13 14:30:00,49.8,18.0,26.13,South,180,3.6,5.4,28,0.00,,---,0.00,VWS V14.01,2013-10-13 21:30:00,
2013-10-13 14:35:00,50.0,19.0,26.13,WSW,248,5.8,6.3,29,0.00,,---,0.00,VWS V14.01,2013-10-13 21:35:00,
2013-10-13 14:40:00,50.4,19.3,26.13,NW,315,3.6,4.9,29,0.00,,---,0.00,VWS V14.01,2013-10-13 21:40:00,
2013-10-13 14:45:00,49.8,18.0,26.13,NE,45,3.1,4.9,28,0.00,,---,0.00,VWS V14.01,2013-10-13 21:45:00,
2013-10-13 14:50:00,49.6,18.7,26.13,SW,225,4.9,5.8,29,0.00,,---,0.00,VWS V14.01,2013-10-13 21:50:00,
2013-10-13 14:55:00,49.3,17.6,26.13,SW,225,2.7,5.4,28,0.00,,---,0.00,VWS V14.01,2013-10-13 21:55:00,
2013-10-13 15:00:00,50.4,19.3,26.13,WSW,248,5.4,8.1,29,0.00,,---,0.00,VWS V14.01,2013-10-13 22:00:00,
2013-10-13 15:05:00,50.4,19.3,26.13,WSW,248,6.3,7.6,29,0.00,,---,0.00,VWS V14.01,2013-10-13 22:05:00,
2013-10-13 15:10:00,50.2,19.2,26.13,SSW,202,3.6,5.8,29,0.00,,---,0.00,VWS V14.01,2013-10-13 22:10:00,
2013-10-13 15:15:00,50.0,18.2,26.13,SW,225,5.8,7.2,28,0.00,,---,0.00,VWS V14.01,2013-10-13 22:15:00,
2013-10-13 15:20:00,49.8,18.9,26.13,SW,225,3.1,4.9,29,0.00,,---,0.00,VWS V14.01,2013-10-13 22:20:00,
2013-10-13 15:25:00,50.2,19.2,26.13,WSW,248,8.3,8.7,29,0.00,,---,0.00,VWS V14.01,2013-10-13 22:25:00,
2013-10-13 15:30:00,50.2,19.2,26.16,WSW,248,3.6,7.6,29,0.00,,---,0.00,VWS V14.01,2013-10-13 22:30:00,
2013-10-13 15:35:00,50.4,19.3,26.16,NW,315,2.7,4.0,29,0.00,,---,0.00,VWS V14.01,2013-10-13 22:35:00,
2013-10-13 15:40:00,49.8,18.0,26.16,NE,45,3.6,4.0,28,0.00,,---,0.00,VWS V14.01,2013-10-13 22:40:00,
2013-10-13 15:45:00,49.3,18.4,26.13,SW,225,2.2,3.1,29,0.00,,---,0.00,VWS V14.01,2013-10-13 22:45:00,
2013-10-13 15:50:00,50.0,19.0,26.13,SW,225,5.8,7.6,29,0.00,,---,0.00,VWS V14.01,2013-10-13 22:50:00,
2013-10-13 15:55:00,49.5,17.7,26.13,NE,45,2.7,3.1,28,0.00,,---,0.00,VWS V14.01,2013-10-13 22:55:00,
2013-10-13 16:00:00,49.5,18.5,26.13,WNW,292,4.9,4.9,29,0.00,,---,0.00,VWS V14.01,2013-10-13 23:00:00,
2013-10-13 16:05:00,49.3,18.4,26.13,WNW,292,3.1,3.1,29,0.00,,---,0.00,VWS V14.01,2013-10-13 23:05:00,
2013-10-13 16:10:00,49.6,19.5,26.13,WSW,248,4.9,5.4,30,0.00,,---,0.00,VWS V14.01,2013-10-13 23:10:00,
2013-10-13 16:15:00,49.8,19.6,26.16,West,270,3.6,4.9,30,0.00,,---,0.00,VWS V14.01,2013-10-13 23:15:00,
2013-10-13 16:20:00,49.8,18.0,26.16,NW,315,3.6,3.6,28,0.00,,---,0.00,VWS V14.01,2013-10-13 23:20:00,
2013-10-13 16:25:00,49.5,18.5,26.16,SW,225,6.3,6.3,29,0.00,,---,0.00,VWS V14.01,2013-10-13 23:25:00,
2013-10-13 16:30:00,49.5,19.3,26.16,South,180,3.6,3.6,30,0.00,,---,0.00,VWS V14.01,2013-10-13 23:30:00,
2013-10-13 16:35:00,49.3,19.2,26.16,SW,225,4.9,4.9,30,0.00,,---,0.00,VWS V14.01,2013-10-13 23:35:00,
2013-10-13 16:40:00,49.1,19.0,26.16,WSW,248,3.6,3.6,30,0.00,,---,0.00,VWS V14.01,2013-10-13 23:40:00,
2013-10-13 16:45:00,49.3,19.2,26.16,West,270,2.7,2.7,30,0.00,,---,0.00,VWS V14.01,2013-10-13 23:45:00,
2013-10-13 16:50:00,49.1,19.0,26.16,West,270,5.8,6.3,30,0.00,,---,0.00,VWS V14.01,2013-10-13 23:50:00,
2013-10-13 16:55:00,49.1,19.0,26.16,SW,225,4.9,4.9,30,0.00,,---,0.00,VWS V14.01,2013-10-13 23:55:00,
2013-10-13 17:00:00,48.9,18.9,26.16,West,270,5.4,5.4,30,0.00,,---,0.00,VWS V14.01,2013-10-14 00:00:00,
2013-10-13 17:05:00,48.7,18.7,26.16,SW,225,3.6,3.6,30,0.00,,---,0.00,VWS V14.01,2013-10-14 00:05:00,
2013-10-13 17:10:00,48.6,18.5,26.16,SW,225,4.5,5.4,30,0.00,,---,0.00,VWS V14.01,2013-10-14 00:10:00,
2013-10-13 17:15:00,48.6,18.5,26.16,SW,225,4.5,7.2,30,0.00,,---,0.00,VWS V14.01,2013-10-14 00:15:00,
2013-10-13 17:20:00,48.2,19.0,26.16,WSW,248,3.6,4.5,31,0.00,,---,0.00,VWS V14.01,2013-10-14 00:20:00,
2013-10-13 17:25:00,48.0,18.8,26.16,WSW,248,4.0,4.0,31,0.00,,---,0.00,VWS V14.01,2013-10-14 00:25:00,
2013-10-13 17:30:00,47.8,18.7,26.16,SW,225,4.0,4.0,31,0.00,,---,0.00,VWS V14.01,2013-10-14 00:30:00,
2013-10-13 17:35:00,47.7,18.5,26.16,SW,225,3.1,4.0,31,0.00,,---,0.00,VWS V14.01,2013-10-14 00:35:00,
2013-10-13 17:40:00,47.3,19.0,26.16,WSW,248,3.6,4.9,32,0.00,,---,0.00,VWS V14.01,2013-10-14 00:40:00,
2013-10-13 17:45:00,47.1,18.8,26.16,SW,225,3.6,3.6,32,0.00,,---,0.00,VWS V14.01,2013-10-14 00:45:00,
2013-10-13 17:50:00,46.9,18.6,26.16,WSW,248,2.7,3.1,32,0.00,,---,0.00,VWS V14.01,2013-10-14 00:50:00,
2013-10-13 17:55:00,46.9,17.9,26.16,WSW,248,0.0,2.7,31,0.00,,---,0.00,VWS V14.01,2013-10-14 00:55:00,
2013-10-13 18:00:00,46.2,18.7,26.16,West,270,2.7,2.7,33,0.00,,---,0.00,VWS V14.01,2013-10-14 01:00:00,
2013-10-13 18:05:00,45.9,18.4,26.16,West,270,0.0,0.0,33,0.00,,---,0.00,VWS V14.01,2013-10-14 01:05:00,
2013-10-13 18:10:00,45.3,17.9,26.16,West,270,2.2,2.7,33,0.00,,---,0.00,VWS V14.01,2013-10-14 01:10:00,
2013-10-13 18:15:00,45.1,17.8,26.19,ENE,68,2.2,2.7,33,0.00,,---,0.00,VWS V14.01,2013-10-14 01:15:00,
2013-10-13 18:20:00,45.1,17.8,26.19,ENE,68,2.2,2.7,33,0.00,,---,0.00,VWS V14.01,2013-10-14 01:20:00,
2013-10-13 18:25:00,45.3,18.6,26.19,ENE,68,2.2,2.7,34,0.00,,---,0.00,VWS V14.01,2013-10-14 01:25:00,
2013-10-13 18:30:00,45.0,18.3,26.19,NE,45,0.0,2.2,34,0.00,,---,0.00,VWS V14.01,2013-10-14 01:30:00,
2013-10-13 18:35:00,44.8,18.8,26.19,NE,45,2.7,2.7,35,0.00,,---,0.00,VWS V14.01,2013-10-14 01:35:00,
2013-10-13 18:40:00,44.2,19.0,26.19,NE,45,2.2,2.2,36,0.00,,---,0.00,VWS V14.01,2013-10-14 01:40:00,
2013-10-13 18:45:00,43.9,18.7,26.19,NE,45,2.7,2.7,36,0.00,,---,0.00,VWS V14.01,2013-10-14 01:45:00,
2013-10-13 18:50:00,43.9,18.0,26.19,East,90,4.9,4.9,35,0.00,,---,0.00,VWS V14.01,2013-10-14 01:50:00,
2013-10-13 18:55:00,43.9,16.7,26.19,NE,45,3.1,4.0,33,0.00,,---,0.00,VWS V14.01,2013-10-14 01:55:00,
2013-10-13 19:00:00,43.5,15.6,26.19,North,0,3.1,5.4,32,0.00,,---,0.00,VWS V14.01,2013-10-14 02:00:00,
2013-10-13 19:05:00,43.2,15.3,26.19,NE,45,4.9,5.4,32,0.00,,---,0.00,VWS V14.01,2013-10-14 02:05:00,
2013-10-13 19:10:00,43.0,14.4,26.19,NNE,22,3.6,3.6,31,0.00,,---,0.00,VWS V14.01,2013-10-14 02:10:00,
2013-10-13 19:15:00,42.6,14.8,26.19,NE,45,4.5,4.5,32,0.00,,---,0.00,VWS V14.01,2013-10-14 02:15:00,
2013-10-13 19:20:00,42.4,14.7,26.19,NE,45,2.2,4.9,32,0.00,,---,0.00,VWS V14.01,2013-10-14 02:20:00,
2013-10-13 19:25:00,42.1,14.4,26.19,ENE,68,4.9,4.9,32,0.00,,---,0.00,VWS V14.01,2013-10-14 02:25:00,
2013-10-13 19:30:00,41.9,14.2,26.19,NNE,22,2.2,2.7,32,0.00,,---,0.00,VWS V14.01,2013-10-14 02:30:00,
2013-10-13 19:35:00,41.7,14.1,26.19,NE,45,2.7,2.7,32,0.00,,---,0.00,VWS V14.01,2013-10-14 02:35:00,
2013-10-13 19:40:00,41.4,13.7,26.19,NE,45,2.7,2.7,32,0.00,,---,0.00,VWS V14.01,2013-10-14 02:40:00,
2013-10-13 19:45:00,41.0,13.4,26.19,North,0,2.7,3.1,32,0.00,,---,0.00,VWS V14.01,2013-10-14 02:45:00,
2013-10-13 19:50:00,41.0,13.4,26.19,NE,45,2.2,2.2,32,0.00,,---,0.00,VWS V14.01,2013-10-14 02:50:00,
2013-10-13 19:55:00,40.6,13.8,26.19,NE,45,3.6,4.9,33,0.00,,---,0.00,VWS V14.01,2013-10-14 02:55:00,
2013-10-13 20:00:00,40.6,13.8,26.22,NE,45,2.7,3.6,33,0.00,,---,0.00,VWS V14.01,2013-10-14 03:00:00,
2013-10-13 20:05:00,40.6,13.8,26.22,NE,45,2.7,2.7,33,0.00,,---,0.00,VWS V14.01,2013-10-14 03:05:00,
2013-10-13 20:10:00,40.8,14.0,26.22,NNE,22,4.0,5.4,33,0.00,,---,0.00,VWS V14.01,2013-10-14 03:10:00,
2013-10-13 20:15:00,40.8,14.0,26.22,NNE,22,3.6,3.6,33,0.00,,---,0.00,VWS V14.01,2013-10-14 03:15:00,
2013-10-13 20:20:00,40.5,13.6,26.22,NE,45,2.2,2.2,33,0.00,,---,0.00,VWS V14.01,2013-10-14 03:20:00,
2013-10-13 20:25:00,40.3,13.5,26.22,NE,45,3.1,3.1,33,0.00,,---,0.00,VWS V14.01,2013-10-14 03:25:00,
2013-10-13 20:30:00,40.1,13.3,26.22,NE,45,2.7,2.7,33,0.00,,---,0.00,VWS V14.01,2013-10-14 03:30:00,
2013-10-13 20:35:00,39.4,13.4,26.22,NE,45,2.2,2.7,34,0.00,,---,0.00,VWS V14.01,2013-10-14 03:35:00,
2013-10-13 20:40:00,39.4,13.4,26.22,NE,45,3.1,4.0,34,0.00,,---,0.00,VWS V14.01,2013-10-14 03:40:00,
2013-10-13 20:45:00,39.4,14.0,26.22,NE,45,2.2,4.0,35,0.00,,---,0.00,VWS V14.01,2013-10-14 03:45:00,
2013-10-13 20:50:00,38.7,14.0,26.22,NE,45,2.7,2.7,36,0.00,,---,0.00,VWS V14.01,2013-10-14 03:50:00,
2013-10-13 20:55:00,38.7,14.0,26.22,NE,45,2.7,2.7,36,0.00,,---,0.00,VWS V14.01,2013-10-14 03:55:00,
2013-10-13 21:00:00,39.0,14.3,26.22,NNW,338,3.1,3.1,36,0.00,,---,0.00,VWS V14.01,2013-10-14 04:00:00,
2013-10-13 21:01:00,39.2,13.9,26.22,North,0,3.6,3.6,35,0.00,,---,0.00,VWS V14.01,2013-10-14 04:01:00,
2013-10-13 21:06:00,39.0,13.7,26.22,North,0,4.0,4.0,35,0.00,,---,0.00,VWS V14.01,2013-10-14 04:06:00,
2013-10-13 21:11:00,39.0,13.7,26.22,North,0,4.0,4.0,35,0.00,,---,0.00,VWS V14.01,2013-10-14 04:11:00,
2013-10-13 21:16:00,38.8,13.5,26.22,North,0,2.2,2.7,35,0.00,,---,0.00,VWS V14.01,2013-10-14 04:16:00,
2013-10-13 21:21:00,39.0,13.7,26.22,North,0,2.2,2.2,35,0.00,,---,0.00,VWS V14.01,2013-10-14 04:21:00,
2013-10-13 21:26:00,38.7,13.4,26.22,North,0,3.1,3.6,35,0.00,,---,0.00,VWS V14.01,2013-10-14 04:26:00,
2013-10-13 21:31:00,38.3,13.1,26.22,North,0,4.5,5.4,35,0.00,,---,0.00,VWS V14.01,2013-10-14 04:31:00,
2013-10-13 21:36:00,38.1,12.9,26.22,North,0,4.0,4.0,35,0.00,,---,0.00,VWS V14.01,2013-10-14 04:36:00,
2013-10-13 21:41:00,38.3,13.1,26.22,North,0,3.1,4.9,35,0.00,,---,0.00,VWS V14.01,2013-10-14 04:41:00,
2013-10-13 21:46:00,38.5,13.2,26.22,North,0,3.1,3.6,35,0.00,,---,0.00,VWS V14.01,2013-10-14 04:46:00,
2013-10-13 21:51:00,38.7,13.4,26.22,North,0,3.1,4.9,35,0.00,,---,0.00,VWS V14.01,2013-10-14 04:51:00,
2013-10-13 21:56:00,38.7,12.7,26.22,North,0,3.1,4.0,34,0.00,,---,0.00,VWS V14.01,2013-10-14 04:56:00,
2013-10-13 22:01:00,39.0,13.0,26.22,North,0,3.1,4.0,34,0.00,,---,0.00,VWS V14.01,2013-10-14 05:01:00,
2013-10-13 22:06:00,39.2,12.5,26.22,North,0,3.1,3.1,33,0.00,,---,0.00,VWS V14.01,2013-10-14 05:06:00,
2013-10-13 22:11:00,39.2,12.5,26.22,North,0,3.6,4.0,33,0.00,,---,0.00,VWS V14.01,2013-10-14 05:11:00,
2013-10-13 22:16:00,39.2,12.5,26.22,North,0,0.0,5.4,33,0.00,,---,0.00,VWS V14.01,2013-10-14 05:16:00,
2013-10-13 22:21:00,39.4,12.7,26.22,North,0,4.9,4.9,33,0.00,,---,0.00,VWS V14.01,2013-10-14 05:21:00,
2013-10-13 22:26:00,39.4,12.7,26.22,North,0,4.0,4.0,33,0.00,,---,0.00,VWS V14.01,2013-10-14 05:26:00,
2013-10-13 22:31:00,39.6,13.5,26.22,North,0,2.7,3.1,34,0.00,,---,0.00,VWS V14.01,2013-10-14 05:31:00,
2013-10-13 22:36:00,39.2,13.2,26.22,North,0,2.7,3.6,34,0.00,,---,0.00,VWS V14.01,2013-10-14 05:36:00,
2013-10-13 22:41:00,38.7,12.7,26.22,North,0,3.6,3.6,34,0.00,,---,0.00,VWS V14.01,2013-10-14 05:41:00,
2013-10-13 22:46:00,38.3,13.1,26.22,North,0,3.6,4.9,35,0.00,,---,0.00,VWS V14.01,2013-10-14 05:46:00,
2013-10-13 22:51:00,38.1,12.9,26.22,North,0,3.6,4.0,35,0.00,,---,0.00,VWS V14.01,2013-10-14 05:51:00,
2013-10-13 22:56:00,38.3,13.7,26.22,North,0,2.7,3.6,36,0.00,,---,0.00,VWS V14.01,2013-10-14 05:56:00,
2013-10-13 23:01:00,38.5,13.9,26.22,North,0,2.7,2.7,36,0.00,,---,0.00,VWS V14.01,2013-10-14 06:01:00,
2013-10-13 23:06:00,38.7,13.4,26.22,North,0,2.2,2.7,35,0.00,,---,0.00,VWS V14.01,2013-10-14 06:06:00,
2013-10-13 23:11:00,38.8,13.5,26.22,North,0,3.6,3.6,35,0.00,,---,0.00,VWS V14.01,2013-10-14 06:11:00,
2013-10-13 23:16:00,38.8,13.5,26.25,North,0,3.6,3.6,35,0.00,,---,0.00,VWS V14.01,2013-10-14 06:16:00,
2013-10-13 23:21:00,38.7,13.4,26.25,North,0,2.7,2.7,35,0.00,,---,0.00,VWS V14.01,2013-10-14 06:21:00,
2013-10-13 23:26:00,38.7,13.4,26.25,North,0,3.1,3.1,35,0.00,,---,0.00,VWS V14.01,2013-10-14 06:26:00,
2013-10-13 23:31:00,38.5,13.2,26.22,North,0,2.7,2.7,35,0.00,,---,0.00,VWS V14.01,2013-10-14 06:31:00,
2013-10-13 23:36:00,37.8,13.2,26.22,North,0,2.7,3.1,36,0.00,,---,0.00,VWS V14.01,2013-10-14 06:36:00,
2013-10-13 23:41:00,36.9,13.0,26.22,North,0,3.6,3.6,37,0.00,,---,0.00,VWS V14.01,2013-10-14 06:41:00,
2013-10-13 23:46:00,36.3,13.8,26.22,North,0,2.2,2.7,39,0.00,,---,0.00,VWS V14.01,2013-10-14 06:46:00,
2013-10-13 23:51:00,36.1,14.2,26.22,North,0,2.7,3.1,40,0.00,,---,0.00,VWS V14.01,2013-10-14 06:51:00,
2013-10-13 23:56:00,35.6,13.7,26.22,North,0,2.2,3.1,40,0.00,,---,0.00,VWS V14.01,2013-10-14 06:56:00,